createdAt,value
2018-02-07T00:00:56.562Z,-0.10
2018-02-07T00:03:24.837Z,-0.10
2018-02-07T00:05:53.121Z,-0.10
2018-02-07T00:08:21.374Z,-0.10
2018-02-07T00:10:49.654Z,-0.10
2018-02-07T00:13:17.935Z,-0.10
2018-02-07T00:15:46.189Z,-0.10
2018-02-07T00:18:14.491Z,-0.10
2018-02-07T00:20:42.749Z,-0.20
2018-02-07T00:23:11.089Z,-0.20
2018-02-07T00:25:40.115Z,-0.20
2018-02-07T00:28:08.403Z,-0.20
2018-02-07T00:30:36.731Z,-0.20
2018-02-07T00:33:05.011Z,-0.20
2018-02-07T00:35:34.039Z,-0.20
2018-02-07T00:38:02.350Z,-0.30
2018-02-07T00:40:30.697Z,-0.20
2018-02-07T00:42:58.933Z,-0.30
2018-02-07T00:45:27.187Z,-0.30
2018-02-07T00:47:56.258Z,-0.30
2018-02-07T00:50:24.494Z,-0.40
2018-02-07T00:52:52.779Z,-0.30
2018-02-07T00:55:21.229Z,-0.30
2018-02-07T00:57:49.587Z,-0.30
2018-02-07T01:00:17.825Z,-0.30
2018-02-07T01:02:46.091Z,-0.30
2018-02-07T01:05:14.361Z,-0.30
2018-02-07T01:07:42.631Z,-0.30
2018-02-07T01:10:11.002Z,-0.30
2018-02-07T01:12:39.283Z,-0.30
2018-02-07T01:15:07.574Z,-0.30
2018-02-07T01:17:35.846Z,-0.30
2018-02-07T01:20:04.274Z,-0.30
2018-02-07T01:22:33.296Z,-0.40
2018-02-07T01:25:01.690Z,-0.40
2018-02-07T01:27:29.947Z,-0.30
2018-02-07T01:29:58.218Z,-0.30
2018-02-07T01:32:26.470Z,-0.30
2018-02-07T01:34:55.509Z,-0.30
2018-02-07T01:37:23.786Z,-0.30
2018-02-07T01:39:52.044Z,-0.30
2018-02-07T01:42:20.340Z,-0.30
2018-02-07T01:44:48.608Z,-0.30
2018-02-07T01:47:16.866Z,-0.30
2018-02-07T01:49:45.134Z,-0.40
2018-02-07T01:52:13.395Z,-0.40
2018-02-07T01:54:41.674Z,-0.40
2018-02-07T01:57:09.968Z,-0.50
2018-02-07T01:59:38.261Z,-0.50
2018-02-07T02:02:06.628Z,-0.60
2018-02-07T02:04:34.899Z,-0.60
2018-02-07T02:07:03.158Z,-0.60
2018-02-07T02:09:31.452Z,-0.70
2018-02-07T02:11:59.718Z,-0.70
2018-02-07T02:14:28.002Z,-0.70
2018-02-07T02:16:56.258Z,-0.70
2018-02-07T02:19:24.700Z,-0.80
2018-02-07T02:21:52.944Z,-0.80
2018-02-07T02:24:21.211Z,-0.70
2018-02-07T02:26:49.467Z,-0.70
2018-02-07T02:29:17.724Z,-0.70
2018-02-07T02:31:45.995Z,-0.70
2018-02-07T02:34:14.271Z,-0.80
2018-02-07T02:36:42.531Z,-0.80
2018-02-07T02:39:11.549Z,-0.80
2018-02-07T02:41:39.881Z,-0.80
2018-02-07T02:44:08.178Z,-0.80
2018-02-07T02:46:37.220Z,-0.70
2018-02-07T02:49:05.520Z,-0.80
2018-02-07T02:51:33.885Z,-0.70
2018-02-07T02:54:02.114Z,-0.70
2018-02-07T02:56:30.390Z,-0.70
2018-02-07T02:58:58.788Z,-0.70
2018-02-07T03:01:27.098Z,-0.70
2018-02-07T03:03:55.443Z,-0.70
2018-02-07T03:06:23.694Z,-0.70
2018-02-07T03:08:51.955Z,-0.70
2018-02-07T03:11:20.986Z,-0.70
2018-02-07T03:13:49.290Z,-0.70
2018-02-07T03:16:17.545Z,-0.70
2018-02-07T03:18:45.838Z,-0.60
2018-02-07T03:21:14.086Z,-0.70
2018-02-07T03:23:42.362Z,-0.70
2018-02-07T03:26:10.651Z,-0.70
2018-02-07T03:28:38.928Z,-0.60
2018-02-07T03:31:07.203Z,-0.60
2018-02-07T03:33:35.450Z,-0.60
2018-02-07T03:36:03.725Z,-0.60
2018-02-07T03:38:32.155Z,-0.70
2018-02-07T03:41:00.443Z,-0.70
2018-02-07T03:43:29.513Z,-0.70
2018-02-07T03:45:57.776Z,-0.80
2018-02-07T03:48:26.045Z,-0.70
2018-02-07T03:50:54.305Z,-0.70
2018-02-07T03:53:22.584Z,-0.70
2018-02-07T03:55:50.863Z,-0.70
2018-02-07T03:58:19.141Z,-0.70
2018-02-07T04:00:47.382Z,-0.70
2018-02-07T04:03:15.670Z,-0.70
2018-02-07T04:05:44.063Z,-0.70
2018-02-07T04:08:12.347Z,-0.70
2018-02-07T04:10:40.623Z,-0.80
2018-02-07T04:13:08.948Z,-0.80
2018-02-07T04:15:37.195Z,-0.80
2018-02-07T04:18:05.452Z,-0.90
2018-02-07T04:20:33.743Z,-0.90
2018-02-07T04:23:01.994Z,-0.90
2018-02-07T04:25:30.314Z,-1.00
2018-02-07T04:27:59.359Z,-1.00
2018-02-07T04:30:27.634Z,-1.10
2018-02-07T04:32:55.911Z,-1.10
2018-02-07T04:35:24.181Z,-1.10
2018-02-07T04:37:52.454Z,-1.10
2018-02-07T04:40:20.838Z,-1.10
2018-02-07T04:42:49.173Z,-1.10
2018-02-07T04:45:17.485Z,-1.10
2018-02-07T04:47:45.911Z,-1.10
2018-02-07T04:50:14.145Z,-1.10
2018-02-07T04:52:42.549Z,-1.10
2018-02-07T04:55:10.803Z,-1.10
2018-02-07T04:57:39.079Z,-1.10
2018-02-07T05:00:07.355Z,-1.20
2018-02-07T05:02:35.643Z,-1.20
2018-02-07T05:05:05.415Z,-1.30
2018-02-07T05:07:33.684Z,-1.30
2018-02-07T05:10:01.941Z,-1.20
2018-02-07T05:12:30.270Z,-1.20
2018-02-07T05:14:58.545Z,-1.30
2018-02-07T05:17:26.815Z,-1.40
2018-02-07T05:19:55.090Z,-1.40
2018-02-07T05:22:23.440Z,-1.40
2018-02-07T05:24:51.736Z,-1.50
2018-02-07T05:27:19.993Z,-1.50
2018-02-07T05:29:48.255Z,-1.60
2018-02-07T05:32:16.534Z,-1.60
2018-02-07T05:34:44.843Z,-1.60
2018-02-07T05:37:13.117Z,-1.60
2018-02-07T05:39:41.462Z,-1.70
2018-02-07T05:42:09.718Z,-1.70
2018-02-07T05:44:37.998Z,-1.70
2018-02-07T05:47:06.261Z,-1.70
2018-02-07T05:49:34.620Z,-1.70
2018-02-07T05:52:02.966Z,-1.70
2018-02-07T05:54:31.386Z,-1.80
2018-02-07T05:57:00.445Z,-1.90
2018-02-07T05:59:29.653Z,-1.90
2018-02-07T06:01:57.906Z,-1.90
2018-02-07T06:04:26.259Z,-1.90
2018-02-07T06:06:54.540Z,-1.90
2018-02-07T06:09:22.807Z,-2.00
2018-02-07T06:11:51.254Z,-2.00
2018-02-07T06:14:20.291Z,-2.10
2018-02-07T06:16:48.552Z,-2.10
2018-02-07T06:19:16.810Z,-2.10
2018-02-07T06:21:45.098Z,-2.20
2018-02-07T06:24:13.383Z,-2.20
2018-02-07T06:26:41.702Z,-2.20
2018-02-07T06:29:09.971Z,-2.30
2018-02-07T06:31:39.802Z,-2.40
2018-02-07T06:34:08.059Z,-2.40
2018-02-07T06:36:37.111Z,-2.30
2018-02-07T06:39:05.432Z,-2.40
2018-02-07T06:41:33.792Z,-2.30
2018-02-07T06:44:02.057Z,-2.40
2018-02-07T06:46:30.354Z,-2.30
2018-02-07T06:48:58.633Z,-2.40
2018-02-07T06:51:26.979Z,-2.40
2018-02-07T06:53:55.253Z,-2.40
2018-02-07T06:56:23.533Z,-2.40
2018-02-07T06:58:51.826Z,-2.50
2018-02-07T07:01:20.073Z,-2.50
2018-02-07T07:03:48.444Z,-2.50
2018-02-07T07:06:16.722Z,-2.50
2018-02-07T07:08:45.021Z,-2.50
2018-02-07T07:11:14.898Z,-2.60
2018-02-07T07:13:43.174Z,-2.60
2018-02-07T07:16:11.449Z,-2.50
2018-02-07T07:18:39.718Z,-2.50
2018-02-07T07:21:08.009Z,-2.50
2018-02-07T07:23:36.281Z,-2.50
2018-02-07T07:26:04.571Z,-2.40
2018-02-07T07:28:34.103Z,-2.40
2018-02-07T07:31:02.428Z,-2.40
2018-02-07T07:33:30.714Z,-2.50
2018-02-07T07:35:58.988Z,-2.40
2018-02-07T07:38:27.258Z,-2.40
2018-02-07T07:40:55.525Z,-2.40
2018-02-07T07:43:23.790Z,-2.40
2018-02-07T07:45:52.068Z,-2.40
2018-02-07T07:48:20.361Z,-2.40
2018-02-07T07:50:48.635Z,-2.40
2018-02-07T07:53:16.881Z,-2.40
2018-02-07T07:55:45.226Z,-2.40
2018-02-07T07:58:13.481Z,-2.40
2018-02-07T08:00:41.785Z,-2.40
2018-02-07T08:03:10.082Z,-2.40
2018-02-07T08:05:38.358Z,-2.40
2018-02-07T08:08:06.758Z,-2.40
2018-02-07T08:10:35.072Z,-2.30
2018-02-07T08:13:03.331Z,-2.30
2018-02-07T08:15:31.600Z,-2.30
2018-02-07T08:17:59.882Z,-2.30
2018-02-07T08:20:28.171Z,-2.30
2018-02-07T08:22:56.465Z,-2.40
2018-02-07T08:25:25.519Z,-2.40
2018-02-07T08:27:53.889Z,-2.50
2018-02-07T08:30:22.152Z,-2.50
2018-02-07T08:32:50.449Z,-2.40
2018-02-07T08:35:18.726Z,-2.50
2018-02-07T08:37:46.990Z,-2.50
2018-02-07T08:40:15.258Z,-2.50
2018-02-07T08:42:43.546Z,-2.50
2018-02-07T08:45:11.825Z,-2.50
2018-02-07T08:47:40.080Z,-2.50
2018-02-07T08:50:08.357Z,-2.40
2018-02-07T08:52:36.632Z,-2.30
2018-02-07T08:55:04.923Z,-2.20
2018-02-07T08:57:33.186Z,-2.10
2018-02-07T09:00:01.613Z,-2.00
2018-02-07T09:02:29.854Z,-1.80
2018-02-07T09:04:58.173Z,-1.80
2018-02-07T09:07:27.204Z,-1.70
2018-02-07T09:09:55.491Z,-1.70
2018-02-07T09:12:23.781Z,-1.70
2018-02-07T09:14:52.059Z,-1.70
2018-02-07T09:17:20.310Z,-1.60
2018-02-07T09:19:48.611Z,-1.60
2018-02-07T09:22:16.874Z,-1.60
2018-02-07T09:24:45.175Z,-1.50
2018-02-07T09:27:13.429Z,-1.50
2018-02-07T09:29:41.729Z,-1.40
2018-02-07T09:32:09.993Z,-1.40
2018-02-07T09:34:38.333Z,-1.30
2018-02-07T09:37:06.644Z,-1.20
2018-02-07T09:39:34.951Z,-1.10
2018-02-07T09:42:03.254Z,-1.00
2018-02-07T09:44:31.573Z,-1.00
2018-02-07T09:46:59.872Z,-0.90
2018-02-07T09:49:28.901Z,-0.90
2018-02-07T09:51:57.187Z,-0.90
2018-02-07T09:54:25.542Z,-0.80
2018-02-07T09:56:53.836Z,-0.70
2018-02-07T09:59:22.102Z,-0.70
2018-02-07T10:01:50.374Z,-0.60
2018-02-07T10:04:18.647Z,-0.60
2018-02-07T10:06:47.727Z,-0.40
2018-02-07T10:09:16.040Z,-0.50
2018-02-07T10:11:44.314Z,-0.30
2018-02-07T10:14:12.607Z,-0.20
2018-02-07T10:16:40.952Z,-0.20
2018-02-07T10:19:09.233Z,-0.10
2018-02-07T10:21:37.492Z,-0.10
2018-02-07T10:24:05.837Z,0.00
2018-02-07T10:26:34.901Z,0.00
2018-02-07T10:29:03.174Z,0.00
2018-02-07T10:31:31.446Z,0.10
2018-02-07T10:33:59.714Z,0.10
2018-02-07T10:36:27.957Z,0.20
2018-02-07T10:38:56.306Z,0.20
2018-02-07T10:41:25.398Z,0.40
2018-02-07T10:43:54.423Z,0.40
2018-02-07T10:46:22.697Z,0.40
2018-02-07T10:48:50.965Z,0.60
2018-02-07T10:51:19.221Z,0.60
2018-02-07T10:53:48.256Z,0.70
2018-02-07T10:56:16.550Z,0.60
2018-02-07T10:58:44.814Z,0.80
2018-02-07T11:01:13.091Z,0.80
2018-02-07T11:03:41.419Z,0.80
2018-02-07T11:06:09.690Z,0.80
2018-02-07T11:08:37.954Z,0.90
2018-02-07T11:11:06.380Z,1.00
2018-02-07T11:13:34.634Z,1.10
2018-02-07T11:16:02.975Z,1.20
2018-02-07T11:18:31.252Z,1.20
2018-02-07T11:21:00.283Z,1.10
2018-02-07T11:23:28.549Z,1.00
2018-02-07T11:25:56.847Z,1.00
2018-02-07T11:28:25.267Z,0.90
2018-02-07T11:30:53.517Z,0.90
2018-02-07T11:33:21.816Z,0.80
2018-02-07T11:35:50.071Z,0.90
2018-02-07T11:38:18.345Z,0.90
2018-02-07T11:40:46.629Z,0.90
2018-02-07T11:43:16.406Z,0.90
2018-02-07T11:45:44.683Z,0.90
2018-02-07T11:48:12.946Z,1.10
2018-02-07T11:50:41.286Z,1.20
2018-02-07T11:53:09.603Z,1.40
2018-02-07T11:55:37.867Z,1.60
2018-02-07T11:58:06.155Z,1.70
2018-02-07T12:00:34.410Z,1.90
2018-02-07T12:03:02.733Z,2.10
2018-02-07T12:05:31.003Z,2.20
2018-02-07T12:07:59.349Z,2.40
2018-02-07T12:10:27.611Z,2.50
2018-02-07T12:12:55.910Z,2.70
2018-02-07T12:15:24.188Z,2.80
2018-02-07T12:17:52.433Z,2.90
2018-02-07T12:20:20.683Z,3.00
2018-02-07T12:22:48.981Z,3.00
2018-02-07T12:25:17.302Z,3.10
2018-02-07T12:27:45.599Z,2.90
2018-02-07T12:30:15.374Z,2.70
2018-02-07T12:32:43.669Z,2.70
2018-02-07T12:35:11.946Z,2.80
2018-02-07T12:37:40.242Z,2.80
2018-02-07T12:40:09.358Z,2.90
2018-02-07T12:42:38.400Z,2.90
2018-02-07T12:45:06.703Z,2.80
2018-02-07T12:47:35.539Z,2.90
2018-02-07T12:50:03.919Z,2.90
2018-02-07T12:52:32.187Z,2.90
2018-02-07T12:55:00.523Z,2.90
2018-02-07T12:57:28.809Z,3.00
2018-02-07T12:59:57.850Z,2.90
2018-02-07T13:02:26.137Z,2.90
2018-02-07T13:04:54.509Z,3.00
2018-02-07T13:07:23.594Z,2.90
2018-02-07T13:09:51.847Z,2.90
2018-02-07T13:12:20.251Z,3.00
2018-02-07T13:14:48.532Z,3.00
2018-02-07T13:17:16.790Z,3.00
2018-02-07T13:19:45.053Z,3.00
2018-02-07T13:22:13.332Z,2.90
2018-02-07T13:24:41.600Z,2.90
2018-02-07T13:27:10.706Z,2.90
2018-02-07T13:29:38.981Z,3.00
2018-02-07T13:32:07.289Z,3.00
2018-02-07T13:34:35.553Z,3.10
2018-02-07T13:37:03.895Z,3.20
2018-02-07T13:39:32.155Z,3.30
2018-02-07T13:42:00.437Z,3.40
2018-02-07T13:44:28.708Z,3.30
2018-02-07T13:46:57.739Z,3.30
2018-02-07T13:49:25.995Z,3.30
2018-02-07T13:51:54.358Z,3.40
2018-02-07T13:54:22.641Z,3.50
2018-02-07T13:56:50.929Z,3.50
2018-02-07T13:59:19.198Z,3.50
2018-02-07T14:01:47.445Z,3.40
2018-02-07T14:04:15.744Z,3.50
2018-02-07T14:06:45.049Z,3.60
2018-02-07T14:09:13.469Z,3.50
2018-02-07T14:11:41.738Z,3.70
2018-02-07T14:14:10.013Z,3.50
2018-02-07T14:16:38.294Z,3.60
2018-02-07T14:19:06.595Z,3.60
2018-02-07T14:21:35.646Z,3.60
2018-02-07T14:24:03.954Z,3.60
2018-02-07T14:26:32.211Z,3.60
2018-02-07T14:29:00.515Z,3.50
2018-02-07T14:31:29.530Z,3.40
2018-02-07T14:33:57.805Z,3.40
2018-02-07T14:36:26.108Z,3.50
2018-02-07T14:38:54.402Z,3.50
2018-02-07T14:41:22.687Z,3.50
2018-02-07T14:43:50.970Z,3.40
2018-02-07T14:46:20.012Z,3.40
2018-02-07T14:48:48.254Z,3.30
2018-02-07T14:51:16.614Z,3.50
2018-02-07T14:53:45.662Z,3.40
2018-02-07T14:56:13.928Z,3.40
2018-02-07T14:58:42.249Z,3.50
2018-02-07T15:01:10.509Z,3.50
2018-02-07T15:03:39.047Z,3.50
2018-02-07T15:06:07.327Z,3.40
2018-02-07T15:08:35.600Z,3.30
2018-02-07T15:11:03.871Z,3.20
2018-02-07T15:13:32.884Z,3.20
2018-02-07T15:16:01.213Z,3.10
2018-02-07T15:18:30.524Z,3.20
2018-02-07T15:20:58.890Z,3.10
2018-02-07T15:23:27.144Z,3.20
2018-02-07T15:25:55.437Z,3.00
2018-02-07T15:28:24.489Z,2.90
2018-02-07T15:30:52.842Z,2.80
2018-02-07T15:33:21.148Z,2.90
2018-02-07T15:35:49.486Z,2.90
2018-02-07T15:38:18.078Z,2.90
2018-02-07T15:40:46.388Z,2.90
2018-02-07T15:43:14.742Z,2.80
2018-02-07T15:45:43.143Z,2.80
2018-02-07T15:48:11.403Z,2.70
2018-02-07T15:50:39.662Z,2.70
2018-02-07T15:53:08.033Z,2.60
2018-02-07T15:55:36.489Z,2.50
2018-02-07T15:58:05.561Z,2.40
2018-02-07T16:00:33.824Z,2.40
2018-02-07T16:03:02.058Z,2.30
2018-02-07T16:05:30.400Z,2.20
2018-02-07T16:07:58.708Z,2.10
2018-02-07T16:10:26.983Z,2.10
2018-02-07T16:12:55.226Z,2.00
2018-02-07T16:15:24.265Z,1.90
2018-02-07T16:17:52.633Z,1.90
2018-02-07T16:20:20.937Z,1.80
2018-02-07T16:22:49.164Z,1.80
2018-02-07T16:25:17.412Z,1.70
2018-02-07T16:27:46.469Z,1.60
2018-02-07T16:30:14.777Z,1.50
2018-02-07T16:32:43.188Z,1.60
2018-02-07T16:35:11.493Z,1.50
2018-02-07T16:37:39.783Z,1.40
2018-02-07T16:40:08.777Z,1.40
2018-02-07T16:42:37.045Z,1.40
2018-02-07T16:45:05.371Z,1.40
2018-02-07T16:47:33.644Z,1.30
2018-02-07T16:50:02.676Z,1.30
2018-02-07T16:52:30.966Z,1.20
2018-02-07T16:54:59.244Z,1.20
2018-02-07T16:57:27.510Z,1.20
2018-02-07T16:59:55.869Z,1.20
2018-02-07T17:02:24.151Z,1.10
2018-02-07T17:04:52.516Z,1.10
2018-02-07T17:07:20.894Z,1.00
2018-02-07T17:09:49.215Z,1.00
2018-02-07T17:12:18.982Z,0.80
2018-02-07T17:14:47.250Z,0.80
2018-02-07T17:17:15.522Z,0.90
2018-02-07T17:19:43.789Z,0.80
2018-02-07T17:22:12.075Z,0.80
2018-02-07T17:24:40.367Z,0.70
2018-02-07T17:27:08.731Z,0.70
2018-02-07T17:29:37.006Z,0.70
2018-02-07T17:32:05.363Z,0.70
2018-02-07T17:34:34.361Z,0.60
2018-02-07T17:37:02.630Z,0.50
2018-02-07T17:39:30.916Z,0.60
2018-02-07T17:41:59.203Z,0.50
2018-02-07T17:44:27.474Z,0.50
2018-02-07T17:46:55.759Z,0.50
2018-02-07T17:49:24.028Z,0.40
2018-02-07T17:51:52.305Z,0.30
2018-02-07T17:54:20.569Z,0.30
2018-02-07T17:56:49.072Z,0.30
2018-02-07T17:59:17.399Z,0.30
2018-02-07T18:01:45.781Z,0.20
2018-02-07T18:04:14.091Z,0.20
2018-02-07T18:06:43.900Z,0.10
2018-02-07T18:09:12.269Z,0.10
2018-02-07T18:11:40.555Z,0.10
2018-02-07T18:14:08.974Z,0.10
2018-02-07T18:16:37.283Z,0.00
2018-02-07T18:19:07.043Z,0.00
2018-02-07T18:21:35.340Z,0.00
2018-02-07T18:24:03.604Z,-0.10
2018-02-07T18:26:31.899Z,-0.10
2018-02-07T18:29:00.232Z,-0.10
2018-02-07T18:31:28.538Z,-0.10
2018-02-07T18:33:57.574Z,-0.10
2018-02-07T18:36:25.923Z,-0.20
2018-02-07T18:38:54.216Z,-0.20
2018-02-07T18:41:23.700Z,-0.20
2018-02-07T18:43:51.974Z,-0.20
2018-02-07T18:46:21.007Z,-0.20
2018-02-07T18:48:49.275Z,-0.20
2018-02-07T18:51:17.551Z,-0.20
2018-02-07T18:53:46.047Z,-0.20
2018-02-07T18:56:14.313Z,-0.20
2018-02-07T18:58:42.588Z,-0.20
2018-02-07T19:01:10.958Z,-0.30
2018-02-07T19:03:39.218Z,-0.30
2018-02-07T19:06:07.646Z,-0.30
2018-02-07T19:08:35.928Z,-0.30
2018-02-07T19:11:04.198Z,-0.30
2018-02-07T19:13:32.489Z,-0.40
2018-02-07T19:16:00.946Z,-0.40
2018-02-07T19:18:29.254Z,-0.50
2018-02-07T19:20:58.290Z,-0.50
2018-02-07T19:23:26.634Z,-0.60
2018-02-07T19:25:54.902Z,-0.50
2018-02-07T19:28:23.199Z,-0.60
2018-02-07T19:30:51.522Z,-0.70
2018-02-07T19:33:21.290Z,-0.70
2018-02-07T19:35:49.790Z,-0.70
2018-02-07T19:38:18.131Z,-0.70
2018-02-07T19:40:46.397Z,-0.70
2018-02-07T19:43:14.685Z,-0.80
2018-02-07T19:45:42.981Z,-0.80
2018-02-07T19:48:11.246Z,-0.80
2018-02-07T19:50:39.544Z,-0.90
2018-02-07T19:53:07.822Z,-0.90
2018-02-07T19:55:36.107Z,-0.90
2018-02-07T19:58:04.386Z,-1.00
2018-02-07T20:00:32.688Z,-1.00
2018-02-07T20:03:01.759Z,-1.10
2018-02-07T20:05:30.018Z,-1.20
2018-02-07T20:07:59.094Z,-1.20
2018-02-07T20:10:27.365Z,-1.20
2018-02-07T20:12:55.754Z,-1.20
2018-02-07T20:15:24.013Z,-1.20
2018-02-07T20:17:52.286Z,-1.20
2018-02-07T20:20:20.558Z,-1.20
2018-02-07T20:22:48.838Z,-1.20
2018-02-07T20:25:17.165Z,-1.20
2018-02-07T20:27:46.227Z,-1.30
2018-02-07T20:30:14.514Z,-1.30
2018-02-07T20:32:42.794Z,-1.30
2018-02-07T20:35:11.069Z,-1.30
2018-02-07T20:37:40.863Z,-1.40
2018-02-07T20:40:09.250Z,-1.40
2018-02-07T20:42:37.546Z,-1.40
2018-02-07T20:45:05.826Z,-1.40
2018-02-07T20:47:34.871Z,-1.40
2018-02-07T20:50:03.145Z,-1.50
2018-02-07T20:52:31.430Z,-1.40
2018-02-07T20:55:01.233Z,-1.50
2018-02-07T20:57:29.601Z,-1.40
2018-02-07T20:59:57.891Z,-1.40
2018-02-07T21:02:26.131Z,-1.30
2018-02-07T21:04:54.453Z,-1.30
2018-02-07T21:07:22.735Z,-1.30
2018-02-07T21:09:51.252Z,-1.30
2018-02-07T21:12:20.342Z,-1.40
2018-02-07T21:14:48.610Z,-1.50
2018-02-07T21:17:17.650Z,-1.40
2018-02-07T21:19:46.019Z,-1.40
2018-02-07T21:22:14.286Z,-1.40
2018-02-07T21:24:42.562Z,-1.40
2018-02-07T21:27:10.855Z,-1.50
2018-02-07T21:29:39.194Z,-1.50
2018-02-07T21:32:07.495Z,-1.50
2018-02-07T21:34:35.996Z,-1.60
2018-02-07T21:37:04.317Z,-1.60
2018-02-07T21:39:33.359Z,-1.60
2018-02-07T21:42:01.673Z,-1.70
2018-02-07T21:44:30.694Z,-1.70
2018-02-07T21:46:58.978Z,-1.70
2018-02-07T21:49:27.410Z,-1.70
2018-02-07T21:51:55.709Z,-1.70
2018-02-07T21:54:24.102Z,-1.70
2018-02-07T21:56:52.545Z,-1.70
2018-02-07T21:59:20.848Z,-1.80
2018-02-07T22:01:49.635Z,-1.80
2018-02-07T22:04:17.911Z,-1.80
2018-02-07T22:06:47.355Z,-1.90
2018-02-07T22:09:15.771Z,-1.90
2018-02-07T22:11:44.826Z,-1.90
2018-02-07T22:14:13.182Z,-2.00
2018-02-07T22:16:41.449Z,-1.90
2018-02-07T22:19:09.747Z,-2.00
2018-02-07T22:21:38.015Z,-2.00
2018-02-07T22:24:06.305Z,-2.00
2018-02-07T22:26:34.852Z,-2.00
2018-02-07T22:29:03.477Z,-2.00
2018-02-07T22:31:32.142Z,-2.10
2018-02-07T22:34:00.711Z,-2.10
2018-02-07T22:36:28.996Z,-2.10
2018-02-07T22:38:57.259Z,-2.10
2018-02-07T22:41:25.628Z,-2.10
2018-02-07T22:43:53.874Z,-2.20
2018-02-07T22:46:22.905Z,-2.20
2018-02-07T22:48:51.149Z,-2.30
2018-02-07T22:51:19.431Z,-2.20
2018-02-07T22:53:47.699Z,-2.20
2018-02-07T22:56:16.730Z,-2.20
2018-02-07T22:58:45.103Z,-2.30
2018-02-07T23:01:13.384Z,-2.30
2018-02-07T23:03:41.726Z,-2.30
2018-02-07T23:06:10.034Z,-2.30
2018-02-07T23:08:38.263Z,-2.30
2018-02-07T23:11:07.440Z,-2.30
2018-02-07T23:13:35.784Z,-2.40
2018-02-07T23:16:04.076Z,-2.30
2018-02-07T23:18:32.399Z,-2.30
2018-02-07T23:21:00.680Z,-2.40
2018-02-07T23:23:28.943Z,-2.40
2018-02-07T23:25:57.199Z,-2.40
2018-02-07T23:28:25.510Z,-2.40
2018-02-07T23:30:53.760Z,-2.40
2018-02-07T23:33:22.789Z,-2.50
2018-02-07T23:35:51.076Z,-2.50
2018-02-07T23:38:19.420Z,-2.50
2018-02-07T23:40:47.668Z,-2.50
2018-02-07T23:43:16.694Z,-2.60
2018-02-07T23:45:44.953Z,-2.60
2018-02-07T23:48:13.244Z,-2.50
2018-02-07T23:50:41.516Z,-2.60
2018-02-07T23:53:09.788Z,-2.60
2018-02-07T23:55:38.905Z,-2.60
2018-02-07T23:58:07.148Z,-2.70
